sensor_id;sensor_type;location;lat;lon;timestamp;pressure;altitude;pressure_sealevel;temperature;humidity
4972;BME280;2501;51.214;6.768;2023-07-08T00:02:19;101311.25;;;22.90;43.20
4972;BME280;2501;51.214;6.768;2023-07-08T00:04:47;101309.50;;;22.89;43.20
4972;BME280;2501;51.214;6.768;2023-07-08T00:07:16;101305.94;;;22.89;43.11
4972;BME280;2501;51.214;6.768;2023-07-08T00:09:48;101306.13;;;22.84;43.26
4972;BME280;2501;51.214;6.768;2023-07-08T00:12:16;101300.88;;;22.81;43.51
4972;BME280;2501;51.214;6.768;2023-07-08T00:14:44;101296.56;;;22.77;43.73
4972;BME280;2501;51.214;6.768;2023-07-08T00:17:13;101294.03;;;22.73;44.20
4972;BME280;2501;51.214;6.768;2023-07-08T00:19:44;101296.78;;;22.70;44.67
4972;BME280;2501;51.214;6.768;2023-07-08T00:22:13;101297.03;;;22.64;44.83
4972;BME280;2501;51.214;6.768;2023-07-08T00:24:42;101299.97;;;22.56;44.87
4972;BME280;2501;51.214;6.768;2023-07-08T00:27:11;101302.78;;;22.51;45.38
4972;BME280;2501;51.214;6.768;2023-07-08T00:29:41;101290.91;;;22.60;44.99
4972;BME280;2501;51.214;6.768;2023-07-08T00:32:11;101293.69;;;22.57;45.53
4972;BME280;2501;51.214;6.768;2023-07-08T00:34:40;101295.72;;;22.50;46.03
4972;BME280;2501;51.214;6.768;2023-07-08T00:37:12;101292.44;;;22.42;46.20
4972;BME280;2501;51.214;6.768;2023-07-08T00:39:41;101300.84;;;22.56;45.42
4972;BME280;2501;51.214;6.768;2023-07-08T00:42:14;101298.75;;;22.40;46.18
4972;BME280;2501;51.214;6.768;2023-07-08T00:44:44;101295.00;;;22.45;46.31
4972;BME280;2501;51.214;6.768;2023-07-08T00:47:14;101292.47;;;22.41;45.89
4972;BME280;2501;51.214;6.768;2023-07-08T00:49:46;101292.59;;;22.38;46.32
4972;BME280;2501;51.214;6.768;2023-07-08T00:52:22;101294.44;;;22.36;46.43
4972;BME280;2501;51.214;6.768;2023-07-08T00:54:52;101295.50;;;22.56;46.21
4972;BME280;2501;51.214;6.768;2023-07-08T00:57:23;101299.63;;;22.40;46.86
4972;BME280;2501;51.214;6.768;2023-07-08T00:59:57;101302.34;;;22.39;47.12
4972;BME280;2501;51.214;6.768;2023-07-08T01:02:27;101294.09;;;22.46;47.49
4972;BME280;2501;51.214;6.768;2023-07-08T01:05:00;101289.75;;;22.42;48.24
4972;BME280;2501;51.214;6.768;2023-07-08T01:07:33;101289.03;;;22.37;48.33
4972;BME280;2501;51.214;6.768;2023-07-08T01:10:06;101288.28;;;22.34;48.99
4972;BME280;2501;51.214;6.768;2023-07-08T01:12:40;101288.97;;;22.39;50.25
4972;BME280;2501;51.214;6.768;2023-07-08T01:15:11;101277.16;;;23.42;49.08
4972;BME280;2501;51.214;6.768;2023-07-08T01:17:42;101280.91;;;23.15;47.67
4972;BME280;2501;51.214;6.768;2023-07-08T01:20:11;101279.56;;;23.50;46.70
4972;BME280;2501;51.214;6.768;2023-07-08T01:22:44;101276.84;;;23.51;46.60
4972;BME280;2501;51.214;6.768;2023-07-08T01:25:13;101274.63;;;22.92;48.54
4972;BME280;2501;51.214;6.768;2023-07-08T01:27:45;101282.94;;;22.85;48.85
4972;BME280;2501;51.214;6.768;2023-07-08T01:30:15;101273.53;;;22.48;52.36
4972;BME280;2501;51.214;6.768;2023-07-08T01:32:47;101279.13;;;22.41;52.80
4972;BME280;2501;51.214;6.768;2023-07-08T01:35:17;101270.19;;;22.67;52.51
4972;BME280;2501;51.214;6.768;2023-07-08T01:37:52;101271.19;;;23.36;52.27
4972;BME280;2501;51.214;6.768;2023-07-08T01:40:26;101262.47;;;22.84;54.63
4972;BME280;2501;51.214;6.768;2023-07-08T01:42:55;101260.06;;;23.46;54.86
4972;BME280;2501;51.214;6.768;2023-07-08T01:45:27;101265.03;;;23.10;55.91
4972;BME280;2501;51.214;6.768;2023-07-08T01:47:59;101267.41;;;23.65;54.96
4972;BME280;2501;51.214;6.768;2023-07-08T01:50:29;101261.94;;;22.98;55.99
4972;BME280;2501;51.214;6.768;2023-07-08T01:53:07;101271.53;;;22.29;58.36
4972;BME280;2501;51.214;6.768;2023-07-08T01:55:37;101271.53;;;22.02;60.04
4972;BME280;2501;51.214;6.768;2023-07-08T01:58:05;101270.06;;;21.92;60.42
4972;BME280;2501;51.214;6.768;2023-07-08T02:00:33;101270.19;;;21.87;60.85
4972;BME280;2501;51.214;6.768;2023-07-08T02:03:02;101263.38;;;21.79;61.02
4972;BME280;2501;51.214;6.768;2023-07-08T02:05:30;101266.75;;;21.84;60.48
4972;BME280;2501;51.214;6.768;2023-07-08T02:08:01;101262.41;;;21.81;59.67
4972;BME280;2501;51.214;6.768;2023-07-08T02:10:30;101251.94;;;22.79;53.90
4972;BME280;2501;51.214;6.768;2023-07-08T02:12:58;101247.63;;;22.50;55.49
4972;BME280;2501;51.214;6.768;2023-07-08T02:15:27;101254.56;;;22.30;57.86
4972;BME280;2501;51.214;6.768;2023-07-08T02:17:55;101252.59;;;22.10;58.17
4972;BME280;2501;51.214;6.768;2023-07-08T02:20:24;101255.31;;;22.08;58.56
4972;BME280;2501;51.214;6.768;2023-07-08T02:22:52;101254.72;;;21.99;58.48
4972;BME280;2501;51.214;6.768;2023-07-08T02:25:23;101246.16;;;21.87;59.51
4972;BME280;2501;51.214;6.768;2023-07-08T02:27:52;101246.94;;;21.91;59.04
4972;BME280;2501;51.214;6.768;2023-07-08T02:30:22;101240.88;;;21.86;59.76
4972;BME280;2501;51.214;6.768;2023-07-08T02:32:50;101235.16;;;21.70;59.88
4972;BME280;2501;51.214;6.768;2023-07-08T02:35:23;101234.97;;;21.76;60.44
4972;BME280;2501;51.214;6.768;2023-07-08T02:37:52;101240.22;;;21.79;59.97
4972;BME280;2501;51.214;6.768;2023-07-08T02:40:24;101235.06;;;21.73;59.06
4972;BME280;2501;51.214;6.768;2023-07-08T02:42:53;101240.53;;;21.69;58.75
4972;BME280;2501;51.214;6.768;2023-07-08T02:45:21;101237.78;;;21.72;56.54
4972;BME280;2501;51.214;6.768;2023-07-08T02:47:50;101240.50;;;21.70;56.27
4972;BME280;2501;51.214;6.768;2023-07-08T02:50:18;101238.91;;;21.65;56.25
4972;BME280;2501;51.214;6.768;2023-07-08T02:52:47;101241.69;;;21.62;54.85
4972;BME280;2501;51.214;6.768;2023-07-08T02:55:15;101239.34;;;21.51;54.38
4972;BME280;2501;51.214;6.768;2023-07-08T02:57:46;101249.34;;;21.44;53.12
4972;BME280;2501;51.214;6.768;2023-07-08T03:00:15;101241.44;;;21.41;52.84
4972;BME280;2501;51.214;6.768;2023-07-08T03:02:45;101242.06;;;21.49;50.99
4972;BME280;2501;51.214;6.768;2023-07-08T03:05:13;101243.44;;;21.89;49.88
4972;BME280;2501;51.214;6.768;2023-07-08T03:07:42;101245.88;;;21.97;49.47
4972;BME280;2501;51.214;6.768;2023-07-08T03:10:10;101240.50;;;21.70;49.47
4972;BME280;2501;51.214;6.768;2023-07-08T03:12:39;101242.59;;;21.61;48.99
4972;BME280;2501;51.214;6.768;2023-07-08T03:15:10;101243.53;;;21.60;48.33
4972;BME280;2501;51.214;6.768;2023-07-08T03:17:38;101238.38;;;21.81;47.90
4972;BME280;2501;51.214;6.768;2023-07-08T03:20:09;101237.97;;;21.66;47.68
4972;BME280;2501;51.214;6.768;2023-07-08T03:22:39;101246.38;;;21.53;48.67
4972;BME280;2501;51.214;6.768;2023-07-08T03:25:08;101248.88;;;21.60;48.55
4972;BME280;2501;51.214;6.768;2023-07-08T03:27:38;101251.81;;;21.50;48.77
4972;BME280;2501;51.214;6.768;2023-07-08T03:30:11;101245.38;;;21.58;48.07
4972;BME280;2501;51.214;6.768;2023-07-08T03:32:40;101244.53;;;21.56;48.10
4972;BME280;2501;51.214;6.768;2023-07-08T03:35:08;101257.94;;;21.54;48.51
4972;BME280;2501;51.214;6.768;2023-07-08T03:37:37;101253.13;;;21.65;48.49
4972;BME280;2501;51.214;6.768;2023-07-08T03:40:10;101246.56;;;21.47;48.65
4972;BME280;2501;51.214;6.768;2023-07-08T03:42:39;101250.75;;;21.56;48.10
4972;BME280;2501;51.214;6.768;2023-07-08T03:45:11;101255.69;;;21.40;48.80
4972;BME280;2501;51.214;6.768;2023-07-08T03:47:41;101245.44;;;21.27;49.52
4972;BME280;2501;51.214;6.768;2023-07-08T03:50:17;101245.28;;;21.31;49.43
4972;BME280;2501;51.214;6.768;2023-07-08T03:52:46;101243.44;;;21.33;49.22
4972;BME280;2501;51.214;6.768;2023-07-08T03:55:18;101245.28;;;21.31;49.00
4972;BME280;2501;51.214;6.768;2023-07-08T03:57:49;101235.63;;;21.29;49.45
4972;BME280;2501;51.214;6.768;2023-07-08T04:00:20;101248.16;;;21.25;49.24
4972;BME280;2501;51.214;6.768;2023-07-08T04:02:48;101246.22;;;21.30;49.01
4972;BME280;2501;51.214;6.768;2023-07-08T04:05:18;101255.47;;;21.17;49.63
4972;BME280;2501;51.214;6.768;2023-07-08T04:07:47;101260.50;;;21.29;49.46
4972;BME280;2501;51.214;6.768;2023-07-08T04:10:16;101266.78;;;21.27;48.91
4972;BME280;2501;51.214;6.768;2023-07-08T04:12:45;101267.72;;;21.26;49.38
4972;BME280;2501;51.214;6.768;2023-07-08T04:15:13;101266.78;;;21.27;48.56
4972;BME280;2501;51.214;6.768;2023-07-08T04:17:46;101271.38;;;21.22;49.48
4972;BME280;2501;51.214;6.768;2023-07-08T04:20:18;101267.84;;;21.21;48.87
4972;BME280;2501;51.214;6.768;2023-07-08T04:22:46;101273.09;;;21.24;48.38
4972;BME280;2501;51.214;6.768;2023-07-08T04:25:17;101266.59;;;21.33;48.43
4972;BME280;2501;51.214;6.768;2023-07-08T04:27:46;101263.66;;;21.70;48.21
4972;BME280;2501;51.214;6.768;2023-07-08T04:30:22;101269.13;;;21.93;47.54
4972;BME280;2501;51.214;6.768;2023-07-08T04:32:53;101264.84;;;21.61;47.92
4972;BME280;2501;51.214;6.768;2023-07-08T04:35:22;101258.28;;;21.43;48.20
4972;BME280;2501;51.214;6.768;2023-07-08T04:37:50;101263.88;;;21.64;47.97
4972;BME280;2501;51.214;6.768;2023-07-08T04:40:20;101268.78;;;21.48;48.27
4972;BME280;2501;51.214;6.768;2023-07-08T04:42:49;101261.88;;;21.42;48.63
4972;BME280;2501;51.214;6.768;2023-07-08T04:45:18;101271.72;;;21.40;48.44
4972;BME280;2501;51.214;6.768;2023-07-08T04:47:46;101268.59;;;21.54;47.79
4972;BME280;2501;51.214;6.768;2023-07-08T04:50:20;101273.84;;;21.57;47.81
4972;BME280;2501;51.214;6.768;2023-07-08T04:52:48;101266.19;;;21.74;47.79
4972;BME280;2501;51.214;6.768;2023-07-08T04:55:18;101252.69;;;21.79;47.13
4972;BME280;2501;51.214;6.768;2023-07-08T04:57:47;101256.88;;;21.60;47.65
4972;BME280;2501;51.214;6.768;2023-07-08T05:00:38;101262.19;;;22.15;47.19
4972;BME280;2501;51.214;6.768;2023-07-08T05:03:29;101254.66;;;22.00;47.09
4972;BME280;2501;51.214;6.768;2023-07-08T05:06:04;101269.22;;;21.90;47.09
4972;BME280;2501;51.214;6.768;2023-07-08T05:08:33;101269.22;;;21.90;47.48
4972;BME280;2501;51.214;6.768;2023-07-08T05:11:01;101263.13;;;22.14;47.01
4972;BME280;2501;51.214;6.768;2023-07-08T05:13:30;101269.00;;;22.50;46.08
4972;BME280;2501;51.214;6.768;2023-07-08T05:16:00;101261.28;;;22.41;46.09
4972;BME280;2501;51.214;6.768;2023-07-08T05:18:29;101266.09;;;22.32;46.33
4972;BME280;2501;51.214;6.768;2023-07-08T05:21:04;101263.28;;;22.35;46.46
4972;BME280;2501;51.214;6.768;2023-07-08T05:23:33;101273.47;;;22.50;45.72
4972;BME280;2501;51.214;6.768;2023-07-08T05:26:02;101274.09;;;22.56;45.85
4972;BME280;2501;51.214;6.768;2023-07-08T05:28:32;101260.81;;;22.80;44.77
4972;BME280;2501;51.214;6.768;2023-07-08T05:31:01;101265.72;;;22.67;44.53
4972;BME280;2501;51.214;6.768;2023-07-08T05:33:30;101263.41;;;23.06;43.92
4972;BME280;2501;51.214;6.768;2023-07-08T05:35:59;101255.53;;;23.48;43.42
4972;BME280;2501;51.214;6.768;2023-07-08T05:38:31;101256.91;;;23.58;42.39
4972;BME280;2501;51.214;6.768;2023-07-08T05:40:59;101256.94;;;23.12;43.30
4972;BME280;2501;51.214;6.768;2023-07-08T05:43:27;101254.50;;;23.06;43.11
4972;BME280;2501;51.214;6.768;2023-07-08T05:45:59;101254.56;;;22.81;44.00
4972;BME280;2501;51.214;6.768;2023-07-08T05:48:28;101255.75;;;22.71;43.87
4972;BME280;2501;51.214;6.768;2023-07-08T05:50:57;101264.06;;;22.63;44.29
4972;BME280;2501;51.214;6.768;2023-07-08T05:53:25;101257.03;;;22.61;44.82
4972;BME280;2501;51.214;6.768;2023-07-08T05:55:56;101257.84;;;22.63;44.23
4972;BME280;2501;51.214;6.768;2023-07-08T05:58:27;101247.00;;;22.92;43.92
4972;BME280;2501;51.214;6.768;2023-07-08T06:00:56;101253.19;;;23.17;44.39
4972;BME280;2501;51.214;6.768;2023-07-08T06:03:25;101250.72;;;23.11;43.86
4972;BME280;2501;51.214;6.768;2023-07-08T06:05:54;101249.47;;;23.43;43.73
4972;BME280;2501;51.214;6.768;2023-07-08T06:08:22;101256.78;;;23.38;43.38
4972;BME280;2501;51.214;6.768;2023-07-08T06:10:51;101265.78;;;23.37;43.46
4972;BME280;2501;51.214;6.768;2023-07-08T06:13:22;101273.13;;;23.32;43.74
4972;BME280;2501;51.214;6.768;2023-07-08T06:15:50;101273.06;;;23.34;43.30
4972;BME280;2501;51.214;6.768;2023-07-08T06:18:19;101266.19;;;23.50;43.20
4972;BME280;2501;51.214;6.768;2023-07-08T06:20:51;101264.66;;;23.66;43.07
4972;BME280;2501;51.214;6.768;2023-07-08T06:23:20;101265.53;;;23.88;41.38
4972;BME280;2501;51.214;6.768;2023-07-08T06:25:49;101267.44;;;24.28;40.91
4972;BME280;2501;51.214;6.768;2023-07-08T06:28:18;101264.00;;;24.25;40.07
4972;BME280;2501;51.214;6.768;2023-07-08T06:30:49;101265.81;;;24.24;40.01
4972;BME280;2501;51.214;6.768;2023-07-08T06:33:18;101262.81;;;24.32;39.50
4972;BME280;2501;51.214;6.768;2023-07-08T06:35:46;101265.88;;;24.23;39.83
4972;BME280;2501;51.214;6.768;2023-07-08T06:38:15;101267.25;;;24.11;39.90
4972;BME280;2501;51.214;6.768;2023-07-08T06:40:43;101266.59;;;24.48;39.78
4972;BME280;2501;51.214;6.768;2023-07-08T06:43:12;101257.41;;;24.54;39.21
4972;BME280;2501;51.214;6.768;2023-07-08T06:45:40;101259.72;;;24.61;39.40
4972;BME280;2501;51.214;6.768;2023-07-08T06:48:12;101258.22;;;24.56;39.04
4972;BME280;2501;51.214;6.768;2023-07-08T06:50:41;101253.91;;;24.52;39.27
4972;BME280;2501;51.214;6.768;2023-07-08T06:53:10;101250.56;;;24.47;39.21
4972;BME280;2501;51.214;6.768;2023-07-08T06:55:39;101254.03;;;24.49;40.13
4972;BME280;2501;51.214;6.768;2023-07-08T06:58:07;101250.28;;;24.73;39.71
4972;BME280;2501;51.214;6.768;2023-07-08T07:00:36;101250.69;;;24.64;39.22
4972;BME280;2501;51.214;6.768;2023-07-08T07:03:04;101252.56;;;24.62;39.47
4972;BME280;2501;51.214;6.768;2023-07-08T07:05:35;101260.66;;;24.60;39.63
4972;BME280;2501;51.214;6.768;2023-07-08T07:08:04;101249.06;;;24.80;39.31
4972;BME280;2501;51.214;6.768;2023-07-08T07:10:33;101243.69;;;25.01;39.26
4972;BME280;2501;51.214;6.768;2023-07-08T07:13:01;101240.22;;;25.17;39.17
4972;BME280;2501;51.214;6.768;2023-07-08T07:15:30;101237.59;;;25.16;38.72
4972;BME280;2501;51.214;6.768;2023-07-08T07:17:58;101236.38;;;25.42;39.06
4972;BME280;2501;51.214;6.768;2023-07-08T07:20:27;101245.56;;;25.55;38.54
4972;BME280;2501;51.214;6.768;2023-07-08T07:22:58;101239.94;;;25.42;38.47
4972;BME280;2501;51.214;6.768;2023-07-08T07:25:27;101238.19;;;25.60;38.26
4972;BME280;2501;51.214;6.768;2023-07-08T07:27:55;101236.44;;;25.40;38.45
4972;BME280;2501;51.214;6.768;2023-07-08T07:30:24;101249.66;;;25.63;38.09
4972;BME280;2501;51.214;6.768;2023-07-08T07:32:52;101246.59;;;25.71;37.99
4972;BME280;2501;51.214;6.768;2023-07-08T07:35:21;101244.59;;;25.93;37.16
4972;BME280;2501;51.214;6.768;2023-07-08T07:37:53;101245.78;;;26.05;36.90
4972;BME280;2501;51.214;6.768;2023-07-08T07:40:24;101242.31;;;26.03;36.79
4972;BME280;2501;51.214;6.768;2023-07-08T07:42:55;101252.66;;;26.29;36.54
4972;BME280;2501;51.214;6.768;2023-07-08T07:45:24;101251.69;;;26.65;36.11
4972;BME280;2501;51.214;6.768;2023-07-08T07:47:53;101241.16;;;26.60;35.48
4972;BME280;2501;51.214;6.768;2023-07-08T07:50:21;101251.34;;;26.71;34.96
4972;BME280;2501;51.214;6.768;2023-07-08T07:52:50;101247.44;;;26.77;35.40
4972;BME280;2501;51.214;6.768;2023-07-08T07:55:18;101249.97;;;26.29;35.44
4972;BME280;2501;51.214;6.768;2023-07-08T07:57:49;101246.06;;;26.35;35.28
4972;BME280;2501;51.214;6.768;2023-07-08T08:00:18;101257.31;;;26.43;34.90
4972;BME280;2501;51.214;6.768;2023-07-08T08:02:46;101245.66;;;26.93;33.59
4972;BME280;2501;51.214;6.768;2023-07-08T08:05:15;101255.69;;;26.74;33.93
4972;BME280;2501;51.214;6.768;2023-07-08T08:07:44;101242.59;;;27.00;33.34
4972;BME280;2501;51.214;6.768;2023-07-08T08:10:13;101247.00;;;27.01;33.07
4972;BME280;2501;51.214;6.768;2023-07-08T08:12:42;101250.09;;;27.27;33.67
4972;BME280;2501;51.214;6.768;2023-07-08T08:15:14;101250.41;;;27.05;33.52
4972;BME280;2501;51.214;6.768;2023-07-08T08:17:42;101254.28;;;27.17;33.41
4972;BME280;2501;51.214;6.768;2023-07-08T08:20:14;101269.19;;;27.07;34.24
4972;BME280;2501;51.214;6.768;2023-07-08T08:22:43;101266.34;;;27.25;34.11
4972;BME280;2501;51.214;6.768;2023-07-08T08:25:11;101259.72;;;26.99;34.11
4972;BME280;2501;51.214;6.768;2023-07-08T08:27:39;101257.19;;;26.96;34.53
4972;BME280;2501;51.214;6.768;2023-07-08T08:30:10;101259.53;;;26.85;34.51
4972;BME280;2501;51.214;6.768;2023-07-08T08:32:41;101255.84;;;27.36;34.55
4972;BME280;2501;51.214;6.768;2023-07-08T08:35:10;101269.13;;;27.39;33.83
4972;BME280;2501;51.214;6.768;2023-07-08T08:37:38;101267.00;;;27.78;33.86
4972;BME280;2501;51.214;6.768;2023-07-08T08:40:12;101271.03;;;27.70;33.89
4972;BME280;2501;51.214;6.768;2023-07-08T08:42:45;101275.09;;;27.78;33.60
4972;BME280;2501;51.214;6.768;2023-07-08T08:45:16;101278.25;;;27.37;33.13
4972;BME280;2501;51.214;6.768;2023-07-08T08:47:53;101267.88;;;27.62;33.36
4972;BME280;2501;51.214;6.768;2023-07-08T08:50:31;101269.72;;;28.07;32.74
4972;BME280;2501;51.214;6.768;2023-07-08T08:53:02;101263.56;;;28.05;32.96
4972;BME280;2501;51.214;6.768;2023-07-08T08:55:32;101254.41;;;28.24;32.48
4972;BME280;2501;51.214;6.768;2023-07-08T08:58:11;101264.16;;;28.26;32.74
4972;BME280;2501;51.214;6.768;2023-07-08T09:00:53;101255.91;;;28.44;32.71
4972;BME280;2501;51.214;6.768;2023-07-08T09:03:34;101263.69;;;28.34;32.95
4972;BME280;2501;51.214;6.768;2023-07-08T09:06:10;101269.38;;;28.29;32.63
4972;BME280;2501;51.214;6.768;2023-07-08T09:08:40;101273.16;;;28.41;32.71
4972;BME280;2501;51.214;6.768;2023-07-08T09:11:27;101270.41;;;28.57;32.12
4972;BME280;2501;51.214;6.768;2023-07-08T09:14:03;101266.34;;;28.50;31.99
4972;BME280;2501;51.214;6.768;2023-07-08T09:16:41;101265.03;;;28.71;32.72
4972;BME280;2501;51.214;6.768;2023-07-08T09:19:21;101262.72;;;28.79;32.22
4972;BME280;2501;51.214;6.768;2023-07-08T09:21:56;101265.25;;;28.96;31.46
4972;BME280;2501;51.214;6.768;2023-07-08T09:24:33;101264.28;;;28.97;32.12
4972;BME280;2501;51.214;6.768;2023-07-08T09:27:03;101263.34;;;28.98;31.71
4972;BME280;2501;51.214;6.768;2023-07-08T09:29:32;101265.41;;;28.65;31.83
4972;BME280;2501;51.214;6.768;2023-07-08T09:32:14;101278.84;;;28.81;31.99
4972;BME280;2501;51.214;6.768;2023-07-08T09:34:50;101265.28;;;29.25;31.72
4972;BME280;2501;51.214;6.768;2023-07-08T09:37:24;101270.38;;;29.15;31.93
4972;BME280;2501;51.214;6.768;2023-07-08T09:39:54;101270.59;;;29.40;31.18
4972;BME280;2501;51.214;6.768;2023-07-08T09:42:26;101268.66;;;29.42;31.69
4972;BME280;2501;51.214;6.768;2023-07-08T09:44:58;101256.28;;;29.79;31.40
4972;BME280;2501;51.214;6.768;2023-07-08T09:47:28;101256.41;;;29.64;31.24
4972;BME280;2501;51.214;6.768;2023-07-08T09:50:04;101257.66;;;29.72;31.26
4972;BME280;2501;51.214;6.768;2023-07-08T09:52:43;101258.38;;;29.89;31.06
4972;BME280;2501;51.214;6.768;2023-07-08T09:55:12;101255.91;;;30.13;30.08
4972;BME280;2501;51.214;6.768;2023-07-08T09:57:43;101250.59;;;29.97;30.08
4972;BME280;2501;51.214;6.768;2023-07-08T10:00:14;101250.28;;;29.89;30.07
4972;BME280;2501;51.214;6.768;2023-07-08T10:02:45;101251.91;;;29.91;30.38
4972;BME280;2501;51.214;6.768;2023-07-08T10:05:19;101248.59;;;30.00;30.87
4972;BME280;2501;51.214;6.768;2023-07-08T10:07:48;101248.91;;;30.35;30.24
4972;BME280;2501;51.214;6.768;2023-07-08T10:10:26;101244.50;;;30.47;30.52
4972;BME280;2501;51.214;6.768;2023-07-08T10:12:58;101246.88;;;29.99;30.13
4972;BME280;2501;51.214;6.768;2023-07-08T10:15:31;101253.78;;;29.76;30.51
4972;BME280;2501;51.214;6.768;2023-07-08T10:18:01;101255.66;;;30.03;30.97
4972;BME280;2501;51.214;6.768;2023-07-08T10:20:45;101247.81;;;30.38;31.03
4972;BME280;2501;51.214;6.768;2023-07-08T10:23:24;101242.75;;;30.46;30.17
4972;BME280;2501;51.214;6.768;2023-07-08T10:25:59;101233.91;;;30.57;30.24
4972;BME280;2501;51.214;6.768;2023-07-08T10:28:34;101226.88;;;30.15;30.48
4972;BME280;2501;51.214;6.768;2023-07-08T10:31:18;101225.22;;;29.99;30.85
4972;BME280;2501;51.214;6.768;2023-07-08T10:34:07;101226.28;;;30.24;30.41
4972;BME280;2501;51.214;6.768;2023-07-08T10:36:48;101229.06;;;30.62;30.46
4972;BME280;2501;51.214;6.768;2023-07-08T10:39:41;101221.22;;;30.83;30.21
4972;BME280;2501;51.214;6.768;2023-07-08T10:42:22;101223.44;;;30.65;29.79
4972;BME280;2501;51.214;6.768;2023-07-08T10:45:00;101211.94;;;30.61;30.12
4972;BME280;2501;51.214;6.768;2023-07-08T10:47:42;101212.88;;;30.86;29.68
4972;BME280;2501;51.214;6.768;2023-07-08T10:50:29;101220.91;;;30.87;29.70
4972;BME280;2501;51.214;6.768;2023-07-08T10:53:17;101218.38;;;31.09;29.74
4972;BME280;2501;51.214;6.768;2023-07-08T10:55:54;101216.25;;;30.89;29.47
4972;BME280;2501;51.214;6.768;2023-07-08T10:59:02;101212.34;;;30.93;29.68
4972;BME280;2501;51.214;6.768;2023-07-08T11:01:41;101209.59;;;31.19;29.28
4972;BME280;2501;51.214;6.768;2023-07-08T11:04:23;101208.00;;;31.16;29.24
4972;BME280;2501;51.214;6.768;2023-07-08T11:06:58;101206.25;;;31.02;29.42
4972;BME280;2501;51.214;6.768;2023-07-08T11:09:40;101207.88;;;31.30;29.31
4972;BME280;2501;51.214;6.768;2023-07-08T11:12:20;101214.16;;;31.05;29.19
4972;BME280;2501;51.214;6.768;2023-07-08T11:14:57;101214.38;;;31.28;29.52
4972;BME280;2501;51.214;6.768;2023-07-08T11:17:31;101211.06;;;31.11;29.57
4972;BME280;2501;51.214;6.768;2023-07-08T11:20:03;101209.00;;;31.15;29.12
4972;BME280;2501;51.214;6.768;2023-07-08T11:22:45;101210.94;;;31.13;28.98
4972;BME280;2501;51.214;6.768;2023-07-08T11:25:23;101213.06;;;31.08;29.18
4972;BME280;2501;51.214;6.768;2023-07-08T11:27:56;101211.69;;;31.15;28.81
4972;BME280;2501;51.214;6.768;2023-07-08T11:30:28;101202.00;;;31.24;29.70
4972;BME280;2501;51.214;6.768;2023-07-08T11:33:03;101200.00;;;31.51;29.14
4972;BME280;2501;51.214;6.768;2023-07-08T11:35:39;101199.09;;;31.27;29.33
4972;BME280;2501;51.214;6.768;2023-07-08T11:38:13;101194.78;;;31.48;29.28
4972;BME280;2501;51.214;6.768;2023-07-08T11:40:55;101193.53;;;31.89;29.27
4972;BME280;2501;51.214;6.768;2023-07-08T11:43:26;101199.28;;;31.60;28.67
4972;BME280;2501;51.214;6.768;2023-07-08T11:45:57;101191.22;;;31.71;28.35
4972;BME280;2501;51.214;6.768;2023-07-08T11:48:27;101198.03;;;32.01;28.80
4972;BME280;2501;51.214;6.768;2023-07-08T11:50:58;101194.75;;;31.85;28.94
4972;BME280;2501;51.214;6.768;2023-07-08T11:53:35;101194.50;;;31.88;27.89
4972;BME280;2501;51.214;6.768;2023-07-08T11:56:20;101196.41;;;31.98;28.26
4972;BME280;2501;51.214;6.768;2023-07-08T12:01:39;101189.50;;;32.40;27.49
4972;BME280;2501;51.214;6.768;2023-07-08T12:04:28;101193.84;;;32.32;27.51
4972;BME280;2501;51.214;6.768;2023-07-08T12:07:10;101181.13;;;32.43;27.01
4972;BME280;2501;51.214;6.768;2023-07-08T12:09:46;101186.84;;;32.63;26.87
4972;BME280;2501;51.214;6.768;2023-07-08T12:12:23;101183.03;;;32.76;27.04
4972;BME280;2501;51.214;6.768;2023-07-08T12:14:54;101178.72;;;32.85;26.41
4972;BME280;2501;51.214;6.768;2023-07-08T12:17:28;101173.66;;;32.80;26.25
4972;BME280;2501;51.214;6.768;2023-07-08T12:20:00;101178.31;;;32.45;25.92
4972;BME280;2501;51.214;6.768;2023-07-08T12:22:32;101176.75;;;32.76;26.00
4972;BME280;2501;51.214;6.768;2023-07-08T12:25:01;101168.59;;;32.98;25.64
4972;BME280;2501;51.214;6.768;2023-07-08T12:27:33;101169.59;;;32.86;25.98
4972;BME280;2501;51.214;6.768;2023-07-08T12:30:01;101170.72;;;32.83;25.74
4972;BME280;2501;51.214;6.768;2023-07-08T12:32:30;101166.59;;;32.67;25.52
4972;BME280;2501;51.214;6.768;2023-07-08T12:35:00;101166.00;;;32.74;25.91
4972;BME280;2501;51.214;6.768;2023-07-08T12:37:30;101162.25;;;33.20;25.93
4972;BME280;2501;51.214;6.768;2023-07-08T12:39:59;101158.44;;;32.67;25.98
4972;BME280;2501;51.214;6.768;2023-07-08T12:42:34;101153.63;;;32.59;25.63
4972;BME280;2501;51.214;6.768;2023-07-08T12:45:04;101154.88;;;32.66;25.60
4972;BME280;2501;51.214;6.768;2023-07-08T12:47:40;101155.34;;;33.27;25.55
4972;BME280;2501;51.214;6.768;2023-07-08T12:50:09;101155.72;;;33.11;25.96
4972;BME280;2501;51.214;6.768;2023-07-08T12:52:38;101159.78;;;33.17;26.38
4972;BME280;2501;51.214;6.768;2023-07-08T12:55:08;101159.84;;;32.83;26.54
4972;BME280;2501;51.214;6.768;2023-07-08T12:57:42;101156.06;;;33.40;25.68
4972;BME280;2501;51.214;6.768;2023-07-08T13:00:15;101162.88;;;33.12;26.19
4972;BME280;2501;51.214;6.768;2023-07-08T13:02:45;101160.00;;;33.47;25.89
4972;BME280;2501;51.214;6.768;2023-07-08T13:05:15;101148.63;;;35.78;23.78
4972;BME280;2501;51.214;6.768;2023-07-08T13:07:44;101154.19;;;35.07;23.54
4972;BME280;2501;51.214;6.768;2023-07-08T13:10:18;101147.22;;;34.84;23.83
4972;BME280;2501;51.214;6.768;2023-07-08T13:12:52;101147.84;;;36.05;23.00
4972;BME280;2501;51.214;6.768;2023-07-08T13:15:24;101138.31;;;36.38;22.60
4972;BME280;2501;51.214;6.768;2023-07-08T13:17:55;101131.44;;;38.58;20.53
4972;BME280;2501;51.214;6.768;2023-07-08T13:20:25;101131.53;;;39.16;19.64
4972;BME280;2501;51.214;6.768;2023-07-08T13:22:55;101136.09;;;36.98;21.78
4972;BME280;2501;51.214;6.768;2023-07-08T13:25:28;101139.63;;;36.80;22.03
4972;BME280;2501;51.214;6.768;2023-07-08T13:28:01;101135.75;;;36.36;22.29
4972;BME280;2501;51.214;6.768;2023-07-08T13:30:31;101147.84;;;36.05;21.87
4972;BME280;2501;51.214;6.768;2023-07-08T13:33:00;101142.09;;;36.37;21.49
4972;BME280;2501;51.214;6.768;2023-07-08T13:35:36;101142.28;;;37.45;20.80
4972;BME280;2501;51.214;6.768;2023-07-08T13:38:05;101147.22;;;36.49;20.82